North Crossroads, Mississippi
Current Conditions -  °F | °C
As of 3:35 PM on Thursday 23 Oct 2014 (Local Time) from KCRX Reporting Station
Clear Clear  
Wind Chill: 64°   Ceiling: Unl
Heat Index: 64°   Visibility: 10mi
Dew Point: 45°   Wind: 7mph
Humidity: 49%   Direction: 40°NE
Pressure: 30.11"   Gusts: NA
Location:  34.8106°N, 88.1999°W
Report Text: KCRX 232035Z AUTO 04006KT 10SM CLR 18/07 A3011 RMK AO2
Loading
Personal Weather Stations






























Interactive Weather Map
Tropical Storm Tracking
New forecast layout! Learn more

10-Day Weather Forecast

Advertisements
Track Severe Weather on mobile